sensor_id;sensor_type;location;lat;lon;timestamp;P1;durP1;ratioP1;P2;durP2;ratioP2
25549;SDS011;13444;50.562;7.262;2023-03-01T00:01:15;16.73;;;10.43;;
25549;SDS011;13444;50.562;7.262;2023-03-01T00:03:43;16.40;;;10.20;;
25549;SDS011;13444;50.562;7.262;2023-03-01T00:06:09;20.63;;;11.60;;
25549;SDS011;13444;50.562;7.262;2023-03-01T00:08:34;16.53;;;9.93;;
25549;SDS011;13444;50.562;7.262;2023-03-01T00:11:04;18.67;;;10.07;;
25549;SDS011;13444;50.562;7.262;2023-03-01T00:13:41;15.60;;;10.30;;
25549;SDS011;13444;50.562;7.262;2023-03-01T00:16:08;16.57;;;9.80;;
25549;SDS011;13444;50.562;7.262;2023-03-01T00:18:36;16.93;;;10.00;;
25549;SDS011;13444;50.562;7.262;2023-03-01T00:21:01;16.60;;;9.53;;
25549;SDS011;13444;50.562;7.262;2023-03-01T00:23:27;17.53;;;10.37;;
25549;SDS011;13444;50.562;7.262;2023-03-01T00:25:53;16.73;;;9.20;;
25549;SDS011;13444;50.562;7.262;2023-03-01T00:28:19;16.10;;;9.17;;
25549;SDS011;13444;50.562;7.262;2023-03-01T00:30:46;13.63;;;8.87;;
25549;SDS011;13444;50.562;7.262;2023-03-01T00:33:11;15.70;;;9.33;;
25549;SDS011;13444;50.562;7.262;2023-03-01T00:35:37;16.20;;;9.13;;
25549;SDS011;13444;50.562;7.262;2023-03-01T00:38:03;18.27;;;9.97;;
25549;SDS011;13444;50.562;7.262;2023-03-01T00:40:30;17.03;;;9.90;;
25549;SDS011;13444;50.562;7.262;2023-03-01T00:42:57;18.30;;;10.67;;
25549;SDS011;13444;50.562;7.262;2023-03-01T00:45:23;15.53;;;9.93;;
25549;SDS011;13444;50.562;7.262;2023-03-01T00:47:49;17.20;;;9.90;;
25549;SDS011;13444;50.562;7.262;2023-03-01T00:50:15;18.13;;;9.43;;
25549;SDS011;13444;50.562;7.262;2023-03-01T00:52:41;15.33;;;8.93;;
25549;SDS011;13444;50.562;7.262;2023-03-01T00:55:07;16.97;;;9.30;;
25549;SDS011;13444;50.562;7.262;2023-03-01T00:57:33;17.23;;;9.97;;
25549;SDS011;13444;50.562;7.262;2023-03-01T00:59:58;17.83;;;9.47;;
25549;SDS011;13444;50.562;7.262;2023-03-01T01:02:24;19.23;;;9.33;;
25549;SDS011;13444;50.562;7.262;2023-03-01T01:04:50;15.53;;;9.40;;
25549;SDS011;13444;50.562;7.262;2023-03-01T01:07:15;14.17;;;9.57;;
25549;SDS011;13444;50.562;7.262;2023-03-01T01:09:41;16.83;;;9.60;;
25549;SDS011;13444;50.562;7.262;2023-03-01T01:12:07;17.13;;;9.50;;
25549;SDS011;13444;50.562;7.262;2023-03-01T01:14:33;16.37;;;9.70;;
25549;SDS011;13444;50.562;7.262;2023-03-01T01:16:59;18.93;;;10.50;;
25549;SDS011;13444;50.562;7.262;2023-03-01T01:19:25;15.83;;;9.73;;
25549;SDS011;13444;50.562;7.262;2023-03-01T01:21:51;19.17;;;10.37;;
25549;SDS011;13444;50.562;7.262;2023-03-01T01:24:17;16.47;;;9.23;;
25549;SDS011;13444;50.562;7.262;2023-03-01T01:26:43;18.60;;;9.63;;
25549;SDS011;13444;50.562;7.262;2023-03-01T01:29:08;14.43;;;9.10;;
25549;SDS011;13444;50.562;7.262;2023-03-01T01:31:35;17.27;;;9.47;;
25549;SDS011;13444;50.562;7.262;2023-03-01T01:34:03;17.70;;;10.03;;
25549;SDS011;13444;50.562;7.262;2023-03-01T01:36:30;20.03;;;10.50;;
25549;SDS011;13444;50.562;7.262;2023-03-01T01:38:57;16.13;;;9.57;;
25549;SDS011;13444;50.562;7.262;2023-03-01T01:41:24;16.00;;;9.50;;
25549;SDS011;13444;50.562;7.262;2023-03-01T01:46:47;15.90;;;9.60;;
25549;SDS011;13444;50.562;7.262;2023-03-01T01:51:45;19.00;;;10.40;;
25549;SDS011;13444;50.562;7.262;2023-03-01T01:54:28;19.73;;;9.77;;
25549;SDS011;13444;50.562;7.262;2023-03-01T01:57:04;13.13;;;8.63;;
25549;SDS011;13444;50.562;7.262;2023-03-01T01:59:34;12.93;;;8.87;;
25549;SDS011;13444;50.562;7.262;2023-03-01T02:02:00;14.00;;;8.83;;
25549;SDS011;13444;50.562;7.262;2023-03-01T02:04:28;14.27;;;9.03;;
25549;SDS011;13444;50.562;7.262;2023-03-01T02:07:00;14.57;;;9.10;;
25549;SDS011;13444;50.562;7.262;2023-03-01T02:09:30;14.13;;;9.30;;
25549;SDS011;13444;50.562;7.262;2023-03-01T02:11:57;16.60;;;8.63;;
25549;SDS011;13444;50.562;7.262;2023-03-01T02:14:23;14.90;;;7.70;;
25549;SDS011;13444;50.562;7.262;2023-03-01T02:16:48;15.57;;;9.90;;
25549;SDS011;13444;50.562;7.262;2023-03-01T02:19:27;13.23;;;8.57;;
25549;SDS011;13444;50.562;7.262;2023-03-01T02:22:07;16.63;;;9.20;;
25549;SDS011;13444;50.562;7.262;2023-03-01T02:24:57;12.57;;;8.87;;
25549;SDS011;13444;50.562;7.262;2023-03-01T02:27:33;15.30;;;9.63;;
25549;SDS011;13444;50.562;7.262;2023-03-01T02:30:22;14.63;;;9.07;;
25549;SDS011;13444;50.562;7.262;2023-03-01T02:32:50;16.23;;;9.33;;
25549;SDS011;13444;50.562;7.262;2023-03-01T02:35:17;13.43;;;8.47;;
25549;SDS011;13444;50.562;7.262;2023-03-01T02:37:44;15.80;;;9.03;;
25549;SDS011;13444;50.562;7.262;2023-03-01T02:40:14;14.83;;;9.33;;
25549;SDS011;13444;50.562;7.262;2023-03-01T02:42:45;14.47;;;9.20;;
25549;SDS011;13444;50.562;7.262;2023-03-01T02:45:15;16.40;;;8.83;;
25549;SDS011;13444;50.562;7.262;2023-03-01T02:47:41;16.30;;;9.77;;
25549;SDS011;13444;50.562;7.262;2023-03-01T02:50:34;16.53;;;9.10;;
25549;SDS011;13444;50.562;7.262;2023-03-01T02:53:06;13.23;;;8.00;;
25549;SDS011;13444;50.562;7.262;2023-03-01T02:55:36;10.87;;;7.73;;
25549;SDS011;13444;50.562;7.262;2023-03-01T02:58:02;14.57;;;9.27;;
25549;SDS011;13444;50.562;7.262;2023-03-01T03:00:29;17.53;;;9.83;;
25549;SDS011;13444;50.562;7.262;2023-03-01T03:02:59;17.10;;;8.80;;
25549;SDS011;13444;50.562;7.262;2023-03-01T03:05:28;13.27;;;8.50;;
25549;SDS011;13444;50.562;7.262;2023-03-01T03:07:55;12.90;;;8.33;;
25549;SDS011;13444;50.562;7.262;2023-03-01T03:10:24;13.60;;;8.73;;
25549;SDS011;13444;50.562;7.262;2023-03-01T03:12:53;14.80;;;8.97;;
25549;SDS011;13444;50.562;7.262;2023-03-01T03:15:23;11.57;;;8.27;;
25549;SDS011;13444;50.562;7.262;2023-03-01T03:17:49;13.43;;;8.87;;
25549;SDS011;13444;50.562;7.262;2023-03-01T03:20:17;13.90;;;9.07;;
25549;SDS011;13444;50.562;7.262;2023-03-01T03:22:45;15.27;;;9.63;;
25549;SDS011;13444;50.562;7.262;2023-03-01T03:25:12;13.70;;;9.10;;
25549;SDS011;13444;50.562;7.262;2023-03-01T03:27:38;16.50;;;8.33;;
25549;SDS011;13444;50.562;7.262;2023-03-01T03:30:05;12.77;;;8.57;;
25549;SDS011;13444;50.562;7.262;2023-03-01T03:32:34;12.97;;;8.40;;
25549;SDS011;13444;50.562;7.262;2023-03-01T03:35:00;13.33;;;8.33;;
25549;SDS011;13444;50.562;7.262;2023-03-01T03:37:26;15.47;;;8.80;;
25549;SDS011;13444;50.562;7.262;2023-03-01T03:40:18;17.13;;;8.77;;
25549;SDS011;13444;50.562;7.262;2023-03-01T03:42:43;16.37;;;8.57;;
25549;SDS011;13444;50.562;7.262;2023-03-01T03:45:09;12.27;;;7.90;;
25549;SDS011;13444;50.562;7.262;2023-03-01T03:47:34;15.70;;;8.77;;
25549;SDS011;13444;50.562;7.262;2023-03-01T03:50:00;15.67;;;8.50;;
25549;SDS011;13444;50.562;7.262;2023-03-01T03:52:25;13.17;;;8.47;;
25549;SDS011;13444;50.562;7.262;2023-03-01T03:54:51;15.23;;;9.07;;
25549;SDS011;13444;50.562;7.262;2023-03-01T03:57:16;14.97;;;8.93;;
25549;SDS011;13444;50.562;7.262;2023-03-01T03:59:42;14.13;;;9.00;;
25549;SDS011;13444;50.562;7.262;2023-03-01T04:02:07;11.47;;;7.83;;
25549;SDS011;13444;50.562;7.262;2023-03-01T04:04:33;11.97;;;8.13;;
25549;SDS011;13444;50.562;7.262;2023-03-01T04:06:59;14.23;;;9.00;;
25549;SDS011;13444;50.562;7.262;2023-03-01T04:09:24;11.43;;;8.13;;
25549;SDS011;13444;50.562;7.262;2023-03-01T04:11:50;13.10;;;7.90;;
25549;SDS011;13444;50.562;7.262;2023-03-01T04:14:15;16.20;;;9.10;;
25549;SDS011;13444;50.562;7.262;2023-03-01T04:16:41;12.30;;;7.67;;
25549;SDS011;13444;50.562;7.262;2023-03-01T04:19:07;15.07;;;8.23;;
25549;SDS011;13444;50.562;7.262;2023-03-01T04:21:34;11.53;;;7.37;;
25549;SDS011;13444;50.562;7.262;2023-03-01T04:24:01;12.67;;;7.70;;
25549;SDS011;13444;50.562;7.262;2023-03-01T04:26:28;14.10;;;7.87;;
25549;SDS011;13444;50.562;7.262;2023-03-01T04:28:54;13.37;;;7.87;;
25549;SDS011;13444;50.562;7.262;2023-03-01T04:31:20;11.17;;;7.70;;
25549;SDS011;13444;50.562;7.262;2023-03-01T04:33:50;13.80;;;8.63;;
25549;SDS011;13444;50.562;7.262;2023-03-01T04:36:17;12.90;;;7.97;;
25549;SDS011;13444;50.562;7.262;2023-03-01T04:38:43;14.20;;;7.87;;
25549;SDS011;13444;50.562;7.262;2023-03-01T04:41:12;13.27;;;7.50;;
25549;SDS011;13444;50.562;7.262;2023-03-01T04:43:38;13.70;;;8.03;;
25549;SDS011;13444;50.562;7.262;2023-03-01T04:46:05;13.20;;;8.67;;
25549;SDS011;13444;50.562;7.262;2023-03-01T04:48:34;15.10;;;8.50;;
25549;SDS011;13444;50.562;7.262;2023-03-01T04:51:00;13.03;;;8.17;;
25549;SDS011;13444;50.562;7.262;2023-03-01T04:53:26;14.00;;;8.80;;
25549;SDS011;13444;50.562;7.262;2023-03-01T04:55:53;14.63;;;9.50;;
25549;SDS011;13444;50.562;7.262;2023-03-01T04:58:20;17.67;;;10.20;;
25549;SDS011;13444;50.562;7.262;2023-03-01T05:00:45;19.00;;;9.53;;
25549;SDS011;13444;50.562;7.262;2023-03-01T05:03:11;17.43;;;9.77;;
25549;SDS011;13444;50.562;7.262;2023-03-01T05:05:37;19.20;;;10.13;;
25549;SDS011;13444;50.562;7.262;2023-03-01T05:08:04;18.23;;;9.77;;
25549;SDS011;13444;50.562;7.262;2023-03-01T05:10:32;16.33;;;9.07;;
25549;SDS011;13444;50.562;7.262;2023-03-01T05:13:00;14.67;;;9.07;;
25549;SDS011;13444;50.562;7.262;2023-03-01T05:15:27;16.17;;;9.30;;
25549;SDS011;13444;50.562;7.262;2023-03-01T05:17:55;14.90;;;8.97;;
25549;SDS011;13444;50.562;7.262;2023-03-01T05:20:23;14.90;;;10.17;;
25549;SDS011;13444;50.562;7.262;2023-03-01T05:22:52;12.43;;;8.27;;
25549;SDS011;13444;50.562;7.262;2023-03-01T05:25:20;14.50;;;9.17;;
25549;SDS011;13444;50.562;7.262;2023-03-01T05:27:46;15.47;;;8.60;;
25549;SDS011;13444;50.562;7.262;2023-03-01T05:30:12;13.80;;;8.70;;
25549;SDS011;13444;50.562;7.262;2023-03-01T05:32:45;14.53;;;8.90;;
25549;SDS011;13444;50.562;7.262;2023-03-01T05:35:12;13.80;;;9.27;;
25549;SDS011;13444;50.562;7.262;2023-03-01T05:37:40;15.47;;;8.40;;
25549;SDS011;13444;50.562;7.262;2023-03-01T05:40:08;14.53;;;9.07;;
25549;SDS011;13444;50.562;7.262;2023-03-01T05:42:40;16.57;;;9.90;;
25549;SDS011;13444;50.562;7.262;2023-03-01T05:45:07;16.53;;;9.33;;
25549;SDS011;13444;50.562;7.262;2023-03-01T05:47:34;13.90;;;8.77;;
25549;SDS011;13444;50.562;7.262;2023-03-01T05:50:00;14.03;;;8.87;;
25549;SDS011;13444;50.562;7.262;2023-03-01T05:52:26;14.00;;;8.77;;
25549;SDS011;13444;50.562;7.262;2023-03-01T05:54:51;13.97;;;8.73;;
25549;SDS011;13444;50.562;7.262;2023-03-01T05:57:17;16.97;;;8.70;;
25549;SDS011;13444;50.562;7.262;2023-03-01T05:59:43;11.20;;;8.13;;
25549;SDS011;13444;50.562;7.262;2023-03-01T06:02:08;13.53;;;9.47;;
25549;SDS011;13444;50.562;7.262;2023-03-01T06:04:34;14.87;;;8.40;;
25549;SDS011;13444;50.562;7.262;2023-03-01T06:06:59;17.87;;;9.90;;
25549;SDS011;13444;50.562;7.262;2023-03-01T06:09:25;14.17;;;8.97;;
25549;SDS011;13444;50.562;7.262;2023-03-01T06:11:51;13.50;;;8.63;;
25549;SDS011;13444;50.562;7.262;2023-03-01T06:14:16;15.57;;;8.67;;
25549;SDS011;13444;50.562;7.262;2023-03-01T06:16:42;14.47;;;9.23;;
25549;SDS011;13444;50.562;7.262;2023-03-01T06:19:07;16.33;;;8.80;;
25549;SDS011;13444;50.562;7.262;2023-03-01T06:21:33;14.97;;;9.27;;
25549;SDS011;13444;50.562;7.262;2023-03-01T06:23:58;18.80;;;9.17;;
25549;SDS011;13444;50.562;7.262;2023-03-01T06:26:24;15.07;;;8.80;;
25549;SDS011;13444;50.562;7.262;2023-03-01T06:28:49;13.97;;;8.73;;
25549;SDS011;13444;50.562;7.262;2023-03-01T06:31:15;15.67;;;9.33;;
25549;SDS011;13444;50.562;7.262;2023-03-01T06:33:41;17.77;;;10.40;;
25549;SDS011;13444;50.562;7.262;2023-03-01T06:36:06;16.23;;;9.67;;
25549;SDS011;13444;50.562;7.262;2023-03-01T06:38:33;16.30;;;9.03;;
25549;SDS011;13444;50.562;7.262;2023-03-01T06:40:58;18.00;;;10.43;;
25549;SDS011;13444;50.562;7.262;2023-03-01T06:43:24;19.03;;;11.20;;
25549;SDS011;13444;50.562;7.262;2023-03-01T06:45:49;20.57;;;12.67;;
25549;SDS011;13444;50.562;7.262;2023-03-01T06:48:15;23.53;;;13.03;;
25549;SDS011;13444;50.562;7.262;2023-03-01T06:50:41;20.17;;;12.47;;
25549;SDS011;13444;50.562;7.262;2023-03-01T06:53:06;22.13;;;12.27;;
25549;SDS011;13444;50.562;7.262;2023-03-01T06:55:32;19.60;;;11.17;;
25549;SDS011;13444;50.562;7.262;2023-03-01T06:57:59;17.47;;;10.77;;
25549;SDS011;13444;50.562;7.262;2023-03-01T07:00:26;21.07;;;11.07;;
25549;SDS011;13444;50.562;7.262;2023-03-01T07:02:52;15.97;;;10.03;;
25549;SDS011;13444;50.562;7.262;2023-03-01T07:05:18;20.10;;;11.57;;
25549;SDS011;13444;50.562;7.262;2023-03-01T07:07:44;20.10;;;11.30;;
25549;SDS011;13444;50.562;7.262;2023-03-01T07:10:10;20.40;;;10.43;;
25549;SDS011;13444;50.562;7.262;2023-03-01T07:12:36;23.93;;;11.80;;
25549;SDS011;13444;50.562;7.262;2023-03-01T07:15:02;25.27;;;12.47;;
25549;SDS011;13444;50.562;7.262;2023-03-01T07:17:28;36.07;;;16.57;;
25549;SDS011;13444;50.562;7.262;2023-03-01T07:19:54;42.27;;;18.50;;
25549;SDS011;13444;50.562;7.262;2023-03-01T07:22:19;37.53;;;16.33;;
25549;SDS011;13444;50.562;7.262;2023-03-01T07:24:45;30.80;;;15.37;;
25549;SDS011;13444;50.562;7.262;2023-03-01T07:27:10;31.90;;;15.50;;
25549;SDS011;13444;50.562;7.262;2023-03-01T07:29:36;30.17;;;13.57;;
25549;SDS011;13444;50.562;7.262;2023-03-01T07:32:02;28.20;;;13.67;;
25549;SDS011;13444;50.562;7.262;2023-03-01T07:34:28;29.90;;;13.90;;
25549;SDS011;13444;50.562;7.262;2023-03-01T07:36:54;36.37;;;17.93;;
25549;SDS011;13444;50.562;7.262;2023-03-01T07:39:20;41.60;;;19.17;;
25549;SDS011;13444;50.562;7.262;2023-03-01T07:41:47;36.17;;;17.07;;
25549;SDS011;13444;50.562;7.262;2023-03-01T07:44:13;30.07;;;15.93;;
25549;SDS011;13444;50.562;7.262;2023-03-01T07:46:40;24.17;;;13.63;;
25549;SDS011;13444;50.562;7.262;2023-03-01T07:49:05;26.83;;;13.33;;
25549;SDS011;13444;50.562;7.262;2023-03-01T07:51:31;22.00;;;12.83;;
25549;SDS011;13444;50.562;7.262;2023-03-01T07:53:56;21.80;;;12.90;;
25549;SDS011;13444;50.562;7.262;2023-03-01T07:56:22;18.87;;;12.23;;
25549;SDS011;13444;50.562;7.262;2023-03-01T07:58:47;26.50;;;12.33;;
25549;SDS011;13444;50.562;7.262;2023-03-01T08:01:14;21.87;;;12.83;;
25549;SDS011;13444;50.562;7.262;2023-03-01T08:03:41;21.97;;;12.80;;
25549;SDS011;13444;50.562;7.262;2023-03-01T08:06:08;19.20;;;12.23;;
25549;SDS011;13444;50.562;7.262;2023-03-01T08:08:35;17.70;;;11.07;;
25549;SDS011;13444;50.562;7.262;2023-03-01T08:11:02;22.97;;;13.47;;
25549;SDS011;13444;50.562;7.262;2023-03-01T08:13:29;20.57;;;11.93;;
25549;SDS011;13444;50.562;7.262;2023-03-01T08:16:00;19.13;;;12.27;;
25549;SDS011;13444;50.562;7.262;2023-03-01T08:18:27;19.97;;;12.40;;
25549;SDS011;13444;50.562;7.262;2023-03-01T08:20:52;21.00;;;12.13;;
25549;SDS011;13444;50.562;7.262;2023-03-01T08:23:18;16.77;;;11.40;;
25549;SDS011;13444;50.562;7.262;2023-03-01T08:25:43;16.33;;;10.40;;
25549;SDS011;13444;50.562;7.262;2023-03-01T08:28:09;20.47;;;11.83;;
25549;SDS011;13444;50.562;7.262;2023-03-01T08:30:34;22.97;;;12.03;;
25549;SDS011;13444;50.562;7.262;2023-03-01T08:33:00;16.23;;;10.67;;
25549;SDS011;13444;50.562;7.262;2023-03-01T08:35:25;18.57;;;11.77;;
25549;SDS011;13444;50.562;7.262;2023-03-01T08:37:51;19.90;;;11.00;;
25549;SDS011;13444;50.562;7.262;2023-03-01T08:40:16;14.53;;;10.57;;
25549;SDS011;13444;50.562;7.262;2023-03-01T08:42:42;18.60;;;11.30;;
25549;SDS011;13444;50.562;7.262;2023-03-01T08:45:09;19.07;;;11.03;;
25549;SDS011;13444;50.562;7.262;2023-03-01T08:47:35;17.90;;;12.10;;
25549;SDS011;13444;50.562;7.262;2023-03-01T08:50:01;18.93;;;11.50;;
25549;SDS011;13444;50.562;7.262;2023-03-01T08:52:26;21.03;;;11.63;;
25549;SDS011;13444;50.562;7.262;2023-03-01T08:54:52;16.70;;;10.63;;
25549;SDS011;13444;50.562;7.262;2023-03-01T08:57:18;16.77;;;11.37;;
25549;SDS011;13444;50.562;7.262;2023-03-01T08:59:43;17.20;;;11.60;;
25549;SDS011;13444;50.562;7.262;2023-03-01T09:02:11;16.37;;;10.70;;
25549;SDS011;13444;50.562;7.262;2023-03-01T09:04:38;18.30;;;11.27;;
25549;SDS011;13444;50.562;7.262;2023-03-01T09:07:04;18.00;;;10.93;;
25549;SDS011;13444;50.562;7.262;2023-03-01T09:09:30;16.20;;;10.57;;
25549;SDS011;13444;50.562;7.262;2023-03-01T09:11:55;16.33;;;10.40;;
25549;SDS011;13444;50.562;7.262;2023-03-01T09:14:21;18.43;;;11.40;;
25549;SDS011;13444;50.562;7.262;2023-03-01T09:16:46;17.80;;;11.37;;
25549;SDS011;13444;50.562;7.262;2023-03-01T09:19:12;15.63;;;10.50;;
25549;SDS011;13444;50.562;7.262;2023-03-01T09:21:38;17.67;;;11.07;;
25549;SDS011;13444;50.562;7.262;2023-03-01T09:24:03;16.23;;;10.83;;
25549;SDS011;13444;50.562;7.262;2023-03-01T09:26:29;16.90;;;10.70;;
25549;SDS011;13444;50.562;7.262;2023-03-01T09:28:55;18.30;;;11.50;;
25549;SDS011;13444;50.562;7.262;2023-03-01T09:31:22;15.67;;;11.53;;
25549;SDS011;13444;50.562;7.262;2023-03-01T09:33:50;19.03;;;11.67;;
25549;SDS011;13444;50.562;7.262;2023-03-01T09:36:18;19.70;;;12.53;;
25549;SDS011;13444;50.562;7.262;2023-03-01T09:38:45;16.73;;;10.57;;
25549;SDS011;13444;50.562;7.262;2023-03-01T09:46:44;15.73;;;10.73;;
25549;SDS011;13444;50.562;7.262;2023-03-01T09:49:21;16.23;;;10.57;;
25549;SDS011;13444;50.562;7.262;2023-03-01T09:51:54;13.97;;;10.53;;
25549;SDS011;13444;50.562;7.262;2023-03-01T09:54:46;15.93;;;11.00;;
25549;SDS011;13444;50.562;7.262;2023-03-01T09:57:28;15.80;;;11.27;;
25549;SDS011;13444;50.562;7.262;2023-03-01T10:00:09;16.45;;;11.23;;
25549;SDS011;13444;50.562;7.262;2023-03-01T10:02:43;15.75;;;11.27;;
25549;SDS011;13444;50.562;7.262;2023-03-01T10:10:51;17.23;;;11.02;;
25549;SDS011;13444;50.562;7.262;2023-03-01T10:13:37;14.77;;;11.10;;
25549;SDS011;13444;50.562;7.262;2023-03-01T10:16:21;17.70;;;12.15;;
25549;SDS011;13444;50.562;7.262;2023-03-01T10:18:53;16.13;;;12.30;;
25549;SDS011;13444;50.562;7.262;2023-03-01T10:21:25;14.48;;;10.73;;
25549;SDS011;13444;50.562;7.262;2023-03-01T10:23:53;14.43;;;10.23;;
25549;SDS011;13444;50.562;7.262;2023-03-01T10:26:25;14.45;;;10.55;;
25549;SDS011;13444;50.562;7.262;2023-03-01T10:29:03;13.52;;;10.95;;
25549;SDS011;13444;50.562;7.262;2023-03-01T10:31:48;16.38;;;11.68;;
25549;SDS011;13444;50.562;7.262;2023-03-01T10:34:17;16.70;;;10.85;;
25549;SDS011;13444;50.562;7.262;2023-03-01T10:36:52;16.80;;;10.52;;
25549;SDS011;13444;50.562;7.262;2023-03-01T10:39:22;14.93;;;10.85;;
25549;SDS011;13444;50.562;7.262;2023-03-01T10:44:44;18.50;;;11.50;;
25549;SDS011;13444;50.562;7.262;2023-03-01T10:47:45;13.73;;;10.05;;
25549;SDS011;13444;50.562;7.262;2023-03-01T10:50:05;14.40;;;10.57;;
25549;SDS011;13444;50.562;7.262;2023-03-01T10:52:43;16.40;;;11.15;;
25549;SDS011;13444;50.562;7.262;2023-03-01T10:58:20;15.20;;;10.35;;
25549;SDS011;13444;50.562;7.262;2023-03-01T11:00:57;17.25;;;10.85;;
25549;SDS011;13444;50.562;7.262;2023-03-01T11:06:00;14.65;;;9.95;;
25549;SDS011;13444;50.562;7.262;2023-03-01T11:08:41;14.45;;;10.20;;
25549;SDS011;13444;50.562;7.262;2023-03-01T11:13:49;12.93;;;9.13;;
25549;SDS011;13444;50.562;7.262;2023-03-01T11:16:22;13.00;;;9.95;;
25549;SDS011;13444;50.562;7.262;2023-03-01T11:18:56;14.43;;;10.13;;
25549;SDS011;13444;50.562;7.262;2023-03-01T11:21:29;15.77;;;10.55;;
25549;SDS011;13444;50.562;7.262;2023-03-01T11:23:58;15.05;;;10.02;;
25549;SDS011;13444;50.562;7.262;2023-03-01T11:26:25;13.68;;;10.40;;
25549;SDS011;13444;50.562;7.262;2023-03-01T11:28:53;16.83;;;9.65;;
25549;SDS011;13444;50.562;7.262;2023-03-01T11:31:23;13.27;;;9.40;;
25549;SDS011;13444;50.562;7.262;2023-03-01T11:34:11;14.40;;;9.60;;
25549;SDS011;13444;50.562;7.262;2023-03-01T11:36:52;13.07;;;9.95;;
25549;SDS011;13444;50.562;7.262;2023-03-01T11:39:31;14.88;;;10.38;;
25549;SDS011;13444;50.562;7.262;2023-03-01T11:42:15;13.98;;;9.85;;
25549;SDS011;13444;50.562;7.262;2023-03-01T11:44:55;11.48;;;9.10;;
25549;SDS011;13444;50.562;7.262;2023-03-01T11:47:27;14.35;;;9.65;;
25549;SDS011;13444;50.562;7.262;2023-03-01T11:50:07;13.02;;;9.52;;
25549;SDS011;13444;50.562;7.262;2023-03-01T11:58:08;14.75;;;9.32;;
25549;SDS011;13444;50.562;7.262;2023-03-01T12:06:30;12.05;;;8.88;;
25549;SDS011;13444;50.562;7.262;2023-03-01T12:12:11;12.20;;;7.70;;
25549;SDS011;13444;50.562;7.262;2023-03-01T12:18:03;13.15;;;9.18;;
25549;SDS011;13444;50.562;7.262;2023-03-01T12:23:32;10.75;;;7.68;;
25549;SDS011;13444;50.562;7.262;2023-03-01T12:26:10;12.98;;;8.40;;
25549;SDS011;13444;50.562;7.262;2023-03-01T12:31:41;12.30;;;8.10;;
25549;SDS011;13444;50.562;7.262;2023-03-01T12:40:03;11.40;;;7.13;;
25549;SDS011;13444;50.562;7.262;2023-03-01T12:51:03;10.93;;;7.55;;
25549;SDS011;13444;50.562;7.262;2023-03-01T12:53:36;11.73;;;7.65;;
25549;SDS011;13444;50.562;7.262;2023-03-01T12:56:06;10.65;;;6.82;;
25549;SDS011;13444;50.562;7.262;2023-03-01T13:01:36;9.38;;;6.57;;
25549;SDS011;13444;50.562;7.262;2023-03-01T13:04:18;12.82;;;6.60;;
25549;SDS011;13444;50.562;7.262;2023-03-01T13:10:20;7.97;;;5.93;;
25549;SDS011;13444;50.562;7.262;2023-03-01T13:17:55;9.18;;;6.03;;
25549;SDS011;13444;50.562;7.262;2023-03-01T13:20:23;10.45;;;6.00;;
25549;SDS011;13444;50.562;7.262;2023-03-01T13:23:03;11.45;;;6.45;;
25549;SDS011;13444;50.562;7.262;2023-03-01T13:31:04;7.07;;;5.50;;
25549;SDS011;13444;50.562;7.262;2023-03-01T13:35:59;9.13;;;6.65;;
25549;SDS011;13444;50.562;7.262;2023-03-01T13:38:45;10.18;;;5.82;;
25549;SDS011;13444;50.562;7.262;2023-03-01T13:46:48;8.80;;;5.32;;
25549;SDS011;13444;50.562;7.262;2023-03-01T13:49:17;8.38;;;5.50;;
25549;SDS011;13444;50.562;7.262;2023-03-01T13:51:48;9.32;;;6.13;;
25549;SDS011;13444;50.562;7.262;2023-03-01T13:54:15;9.35;;;4.75;;
25549;SDS011;13444;50.562;7.262;2023-03-01T13:56:44;12.85;;;6.00;;
25549;SDS011;13444;50.562;7.262;2023-03-01T13:59:14;8.82;;;5.22;;
25549;SDS011;13444;50.562;7.262;2023-03-01T14:01:41;8.48;;;5.50;;
25549;SDS011;13444;50.562;7.262;2023-03-01T14:04:23;6.90;;;5.00;;
25549;SDS011;13444;50.562;7.262;2023-03-01T14:09:48;9.23;;;5.40;;
25549;SDS011;13444;50.562;7.262;2023-03-01T14:14:56;9.55;;;5.15;;
25549;SDS011;13444;50.562;7.262;2023-03-01T14:17:31;9.88;;;5.72;;
25549;SDS011;13444;50.562;7.262;2023-03-01T14:20:09;8.35;;;5.47;;
25549;SDS011;13444;50.562;7.262;2023-03-01T14:22:53;11.23;;;5.85;;
25549;SDS011;13444;50.562;7.262;2023-03-01T14:25:26;9.15;;;6.05;;
25549;SDS011;13444;50.562;7.262;2023-03-01T14:28:04;13.70;;;5.47;;
25549;SDS011;13444;50.562;7.262;2023-03-01T14:30:45;7.90;;;5.38;;
25549;SDS011;13444;50.562;7.262;2023-03-01T14:33:29;8.25;;;5.78;;
25549;SDS011;13444;50.562;7.262;2023-03-01T14:36:02;8.32;;;5.15;;
25549;SDS011;13444;50.562;7.262;2023-03-01T14:38:32;8.52;;;4.60;;
25549;SDS011;13444;50.562;7.262;2023-03-01T14:41:00;6.63;;;4.97;;
25549;SDS011;13444;50.562;7.262;2023-03-01T14:43:29;7.60;;;5.38;;
25549;SDS011;13444;50.562;7.262;2023-03-01T14:45:55;9.68;;;4.93;;
25549;SDS011;13444;50.562;7.262;2023-03-01T14:48:21;8.10;;;5.10;;
25549;SDS011;13444;50.562;7.262;2023-03-01T14:50:47;7.40;;;4.53;;
25549;SDS011;13444;50.562;7.262;2023-03-01T14:53:24;6.82;;;4.15;;
25549;SDS011;13444;50.562;7.262;2023-03-01T14:55:56;9.48;;;4.30;;
25549;SDS011;13444;50.562;7.262;2023-03-01T14:58:27;9.50;;;4.15;;
25549;SDS011;13444;50.562;7.262;2023-03-01T15:00:56;6.82;;;4.55;;
25549;SDS011;13444;50.562;7.262;2023-03-01T15:03:30;6.97;;;4.30;;
25549;SDS011;13444;50.562;7.262;2023-03-01T15:05:56;10.82;;;4.43;;
25549;SDS011;13444;50.562;7.262;2023-03-01T15:08:23;8.85;;;4.35;;
25549;SDS011;13444;50.562;7.262;2023-03-01T15:11:17;8.43;;;4.20;;
25549;SDS011;13444;50.562;7.262;2023-03-01T15:13:53;6.43;;;3.78;;
25549;SDS011;13444;50.562;7.262;2023-03-01T15:16:23;6.47;;;3.80;;
25549;SDS011;13444;50.562;7.262;2023-03-01T15:21:34;5.95;;;4.18;;
25549;SDS011;13444;50.562;7.262;2023-03-01T15:26:49;9.45;;;4.45;;
25549;SDS011;13444;50.562;7.262;2023-03-01T15:29:23;9.57;;;4.30;;
25549;SDS011;13444;50.562;7.262;2023-03-01T15:31:55;8.93;;;4.22;;
25549;SDS011;13444;50.562;7.262;2023-03-01T15:34:27;7.22;;;4.63;;
25549;SDS011;13444;50.562;7.262;2023-03-01T15:36:55;8.63;;;4.45;;
25549;SDS011;13444;50.562;7.262;2023-03-01T15:45:27;5.60;;;3.83;;
25549;SDS011;13444;50.562;7.262;2023-03-01T15:47:50;10.45;;;5.00;;
25549;SDS011;13444;50.562;7.262;2023-03-01T15:50:26;7.57;;;5.00;;
25549;SDS011;13444;50.562;7.262;2023-03-01T15:52:54;8.93;;;4.85;;
25549;SDS011;13444;50.562;7.262;2023-03-01T15:57:48;6.15;;;4.05;;
25549;SDS011;13444;50.562;7.262;2023-03-01T16:00:15;9.52;;;4.65;;
25549;SDS011;13444;50.562;7.262;2023-03-01T16:02:42;8.32;;;4.55;;
25549;SDS011;13444;50.562;7.262;2023-03-01T16:05:12;9.68;;;5.05;;
25549;SDS011;13444;50.562;7.262;2023-03-01T16:07:44;7.68;;;4.57;;
25549;SDS011;13444;50.562;7.262;2023-03-01T16:10:09;6.60;;;4.15;;
25549;SDS011;13444;50.562;7.262;2023-03-01T16:12:35;7.65;;;4.78;;
25549;SDS011;13444;50.562;7.262;2023-03-01T16:15:00;7.38;;;4.78;;
25549;SDS011;13444;50.562;7.262;2023-03-01T16:17:26;8.50;;;4.38;;
25549;SDS011;13444;50.562;7.262;2023-03-01T16:19:51;7.70;;;4.50;;
25549;SDS011;13444;50.562;7.262;2023-03-01T16:22:17;7.65;;;4.25;;
25549;SDS011;13444;50.562;7.262;2023-03-01T16:24:45;7.03;;;4.28;;
25549;SDS011;13444;50.562;7.262;2023-03-01T16:28:20;5.93;;;4.05;;
25549;SDS011;13444;50.562;7.262;2023-03-01T16:30:46;7.63;;;4.30;;
25549;SDS011;13444;50.562;7.262;2023-03-01T16:33:13;6.63;;;3.92;;
25549;SDS011;13444;50.562;7.262;2023-03-01T16:35:39;16.15;;;5.47;;